Pagina principale
METAR-TAF:

METAR-TAF

Aeroporti :

Hartness State Airport

Springfield, Vermont, Stati Uniti

latitudine: 43-20-33N, longitudine: 072-31-18W, altezza: 175 m

Osservazione

Il bollettino è stato emesso 1 ora e 4 minuti fa, alle 06:54 UTC
Vento calmo
Temperature 8°C
Umidità 93%
Pressione 1017 hPa
Visibilità: 16.1 km
Cielo sereno

METAR: KVSF 240654Z AUTO 00000KT 10SM CLR 08/07 A3004 RMK AO2 SLP172 T00780072

Ora: 03:58 (07:58 UTC)


TAF: mancante

Osservazioni e previsioni meteorologiche di più di 4000 aeroporti (messaggi METAR e TAF).

Le stazioni disponibili sono rappresentate dai dischi gialli e rossi sulla carta.

Puntare il mouse per vedere il nome della stazione.

Clicca sopra per visualizzare le osservazioni e previsioni meteorologiche.

Per cambiare la mappa : fare clic sui pulsanti verdi con una croce nera per ingrandire, il pulsante verde con un trattino per diminuire, o sulla freccia verde per le mappe adiacenti.


METAR-TAF: